Iguaracu, Brazil
Current Conditions -  °F | °C
As of 4:00 PM on Sunday 23 Nov 2014 (Local Time) from SBMG Reporting Station
Broken Clouds Broken Clouds  
Wind Chill: 84°   Ceiling: 4500
Heat Index: 86°   Visibility: 6mi
Dew Point: 66°   Wind: 6mph
Humidity: 55%   Direction: 340°NNW
Pressure: 29.88"   Gusts: NA
Location:  23.2°S, 51.83°W
Report Text: SBMG 231800Z 34005KT 9999 BKN045 FEW050TCU 29/19 Q1012
Loading
Personal Weather Stations






























Interactive Weather Map New forecast layout! Learn more

10-Day Weather Forecast

Advertisements
Track Severe Weather on mobile